sensor_id;sensor_type;location;lat;lon;timestamp;P1;durP1;ratioP1;P2;durP2;ratioP2
14766;SDS011;7475;53.558;9.970;2023-12-29T00:01:06;10.40;;;2.10;;
14766;SDS011;7475;53.558;9.970;2023-12-29T00:03:31;10.50;;;2.25;;
14766;SDS011;7475;53.558;9.970;2023-12-29T00:05:57;7.00;;;1.67;;
14766;SDS011;7475;53.558;9.970;2023-12-29T00:08:22;14.77;;;3.63;;
14766;SDS011;7475;53.558;9.970;2023-12-29T00:10:47;15.10;;;3.37;;
14766;SDS011;7475;53.558;9.970;2023-12-29T00:13:12;10.55;;;3.80;;
14766;SDS011;7475;53.558;9.970;2023-12-29T00:15:37;11.30;;;3.40;;
14766;SDS011;7475;53.558;9.970;2023-12-29T00:18:03;11.23;;;3.60;;
14766;SDS011;7475;53.558;9.970;2023-12-29T00:20:28;12.02;;;3.83;;
14766;SDS011;7475;53.558;9.970;2023-12-29T00:22:54;12.55;;;2.63;;
14766;SDS011;7475;53.558;9.970;2023-12-29T00:25:23;9.98;;;2.13;;
14766;SDS011;7475;53.558;9.970;2023-12-29T00:27:48;11.85;;;2.50;;
14766;SDS011;7475;53.558;9.970;2023-12-29T00:30:14;7.20;;;2.20;;
14766;SDS011;7475;53.558;9.970;2023-12-29T00:32:40;10.10;;;2.67;;
14766;SDS011;7475;53.558;9.970;2023-12-29T00:35:05;6.60;;;1.92;;
14766;SDS011;7475;53.558;9.970;2023-12-29T00:37:30;12.18;;;2.65;;
14766;SDS011;7475;53.558;9.970;2023-12-29T00:39:58;11.05;;;2.35;;
14766;SDS011;7475;53.558;9.970;2023-12-29T00:42:23;11.10;;;2.53;;
14766;SDS011;7475;53.558;9.970;2023-12-29T00:44:49;12.18;;;2.65;;
14766;SDS011;7475;53.558;9.970;2023-12-29T00:47:14;12.30;;;2.75;;
14766;SDS011;7475;53.558;9.970;2023-12-29T00:49:39;11.82;;;2.53;;
14766;SDS011;7475;53.558;9.970;2023-12-29T00:52:06;10.40;;;2.45;;
14766;SDS011;7475;53.558;9.970;2023-12-29T00:54:31;8.57;;;2.53;;
14766;SDS011;7475;53.558;9.970;2023-12-29T00:56:56;11.50;;;2.58;;
14766;SDS011;7475;53.558;9.970;2023-12-29T00:59:21;11.52;;;2.72;;
14766;SDS011;7475;53.558;9.970;2023-12-29T01:01:46;7.30;;;2.30;;
14766;SDS011;7475;53.558;9.970;2023-12-29T01:04:12;8.93;;;2.15;;
14766;SDS011;7475;53.558;9.970;2023-12-29T01:06:37;8.38;;;2.08;;
14766;SDS011;7475;53.558;9.970;2023-12-29T01:09:02;9.00;;;2.42;;
14766;SDS011;7475;53.558;9.970;2023-12-29T01:11:28;11.15;;;2.20;;
14766;SDS011;7475;53.558;9.970;2023-12-29T01:13:53;8.40;;;1.98;;
14766;SDS011;7475;53.558;9.970;2023-12-29T01:16:18;10.18;;;2.53;;
14766;SDS011;7475;53.558;9.970;2023-12-29T01:18:43;7.57;;;2.47;;
14766;SDS011;7475;53.558;9.970;2023-12-29T01:21:09;9.20;;;2.28;;
14766;SDS011;7475;53.558;9.970;2023-12-29T01:23:34;8.13;;;2.35;;
14766;SDS011;7475;53.558;9.970;2023-12-29T01:25:59;12.25;;;1.70;;
14766;SDS011;7475;53.558;9.970;2023-12-29T01:28:24;7.38;;;2.63;;
14766;SDS011;7475;53.558;9.970;2023-12-29T01:30:50;7.75;;;2.10;;
14766;SDS011;7475;53.558;9.970;2023-12-29T01:33:16;7.20;;;2.35;;
14766;SDS011;7475;53.558;9.970;2023-12-29T01:35:41;9.27;;;2.90;;
14766;SDS011;7475;53.558;9.970;2023-12-29T01:38:07;8.75;;;2.28;;
14766;SDS011;7475;53.558;9.970;2023-12-29T01:40:32;8.07;;;2.63;;
14766;SDS011;7475;53.558;9.970;2023-12-29T01:42:57;9.48;;;2.30;;
14766;SDS011;7475;53.558;9.970;2023-12-29T01:45:22;11.18;;;2.78;;
14766;SDS011;7475;53.558;9.970;2023-12-29T01:47:49;9.98;;;2.80;;
14766;SDS011;7475;53.558;9.970;2023-12-29T01:50:15;7.95;;;2.15;;
14766;SDS011;7475;53.558;9.970;2023-12-29T01:52:40;10.50;;;2.63;;
14766;SDS011;7475;53.558;9.970;2023-12-29T01:55:06;8.60;;;2.20;;
14766;SDS011;7475;53.558;9.970;2023-12-29T01:57:31;8.88;;;2.42;;
14766;SDS011;7475;53.558;9.970;2023-12-29T02:00:00;12.85;;;2.47;;
14766;SDS011;7475;53.558;9.970;2023-12-29T02:02:25;8.25;;;2.50;;
14766;SDS011;7475;53.558;9.970;2023-12-29T02:04:50;6.32;;;2.10;;
14766;SDS011;7475;53.558;9.970;2023-12-29T02:07:15;9.90;;;2.40;;
14766;SDS011;7475;53.558;9.970;2023-12-29T02:09:40;8.05;;;2.20;;
14766;SDS011;7475;53.558;9.970;2023-12-29T02:12:06;5.82;;;1.85;;
14766;SDS011;7475;53.558;9.970;2023-12-29T02:14:31;8.73;;;2.15;;
14766;SDS011;7475;53.558;9.970;2023-12-29T02:19:29;8.35;;;2.35;;
14766;SDS011;7475;53.558;9.970;2023-12-29T02:21:59;7.25;;;2.05;;
14766;SDS011;7475;53.558;9.970;2023-12-29T02:24:24;6.78;;;2.25;;
14766;SDS011;7475;53.558;9.970;2023-12-29T02:26:50;7.53;;;1.98;;
14766;SDS011;7475;53.558;9.970;2023-12-29T02:29:17;9.73;;;2.00;;
14766;SDS011;7475;53.558;9.970;2023-12-29T02:31:44;8.48;;;1.92;;
14766;SDS011;7475;53.558;9.970;2023-12-29T02:34:13;11.05;;;2.03;;
14766;SDS011;7475;53.558;9.970;2023-12-29T02:36:39;8.50;;;1.95;;
14766;SDS011;7475;53.558;9.970;2023-12-29T02:39:07;9.02;;;2.17;;
14766;SDS011;7475;53.558;9.970;2023-12-29T02:41:33;8.07;;;2.17;;
14766;SDS011;7475;53.558;9.970;2023-12-29T02:43:58;12.00;;;2.03;;
14766;SDS011;7475;53.558;9.970;2023-12-29T02:46:24;6.68;;;1.70;;
14766;SDS011;7475;53.558;9.970;2023-12-29T02:48:49;9.05;;;1.88;;
14766;SDS011;7475;53.558;9.970;2023-12-29T02:51:15;9.38;;;2.53;;
14766;SDS011;7475;53.558;9.970;2023-12-29T02:53:40;9.50;;;2.20;;
14766;SDS011;7475;53.558;9.970;2023-12-29T02:56:06;6.47;;;1.70;;
14766;SDS011;7475;53.558;9.970;2023-12-29T02:58:31;6.05;;;1.70;;
14766;SDS011;7475;53.558;9.970;2023-12-29T03:00:56;4.82;;;2.08;;
14766;SDS011;7475;53.558;9.970;2023-12-29T03:03:21;3.92;;;1.40;;
14766;SDS011;7475;53.558;9.970;2023-12-29T03:05:46;11.70;;;2.22;;
14766;SDS011;7475;53.558;9.970;2023-12-29T03:08:12;7.97;;;1.80;;
14766;SDS011;7475;53.558;9.970;2023-12-29T03:10:37;4.50;;;1.38;;
14766;SDS011;7475;53.558;9.970;2023-12-29T03:13:02;5.57;;;1.65;;
14766;SDS011;7475;53.558;9.970;2023-12-29T03:15:29;5.32;;;1.75;;
14766;SDS011;7475;53.558;9.970;2023-12-29T03:17:54;7.35;;;1.73;;
14766;SDS011;7475;53.558;9.970;2023-12-29T03:20:19;3.50;;;1.30;;
14766;SDS011;7475;53.558;9.970;2023-12-29T03:22:44;7.95;;;1.30;;
14766;SDS011;7475;53.558;9.970;2023-12-29T03:25:09;5.83;;;1.40;;
14766;SDS011;7475;53.558;9.970;2023-12-29T03:27:34;5.70;;;1.23;;
14766;SDS011;7475;53.558;9.970;2023-12-29T03:30:00;6.90;;;1.50;;
14766;SDS011;7475;53.558;9.970;2023-12-29T03:32:25;6.93;;;1.75;;
14766;SDS011;7475;53.558;9.970;2023-12-29T03:34:50;6.63;;;1.60;;
14766;SDS011;7475;53.558;9.970;2023-12-29T03:37:16;7.85;;;1.30;;
14766;SDS011;7475;53.558;9.970;2023-12-29T03:39:41;5.22;;;1.27;;
14766;SDS011;7475;53.558;9.970;2023-12-29T03:42:06;3.92;;;1.50;;
14766;SDS011;7475;53.558;9.970;2023-12-29T03:44:31;3.67;;;1.40;;
14766;SDS011;7475;53.558;9.970;2023-12-29T03:46:57;5.43;;;1.10;;
14766;SDS011;7475;53.558;9.970;2023-12-29T03:49:22;4.82;;;1.33;;
14766;SDS011;7475;53.558;9.970;2023-12-29T03:51:47;5.00;;;1.80;;
14766;SDS011;7475;53.558;9.970;2023-12-29T03:54:12;4.50;;;1.48;;
14766;SDS011;7475;53.558;9.970;2023-12-29T03:56:37;4.13;;;1.77;;
14766;SDS011;7475;53.558;9.970;2023-12-29T03:59:03;6.93;;;2.03;;
14766;SDS011;7475;53.558;9.970;2023-12-29T04:01:28;7.80;;;1.60;;
14766;SDS011;7475;53.558;9.970;2023-12-29T04:03:53;5.43;;;1.27;;
14766;SDS011;7475;53.558;9.970;2023-12-29T04:06:19;5.82;;;1.50;;
14766;SDS011;7475;53.558;9.970;2023-12-29T04:08:44;11.20;;;1.70;;
14766;SDS011;7475;53.558;9.970;2023-12-29T04:11:09;8.15;;;1.45;;
14766;SDS011;7475;53.558;9.970;2023-12-29T04:13:35;6.03;;;1.40;;
14766;SDS011;7475;53.558;9.970;2023-12-29T04:16:00;7.72;;;1.40;;
14766;SDS011;7475;53.558;9.970;2023-12-29T04:18:25;2.92;;;0.68;;
14766;SDS011;7475;53.558;9.970;2023-12-29T04:20:50;3.42;;;1.10;;
14766;SDS011;7475;53.558;9.970;2023-12-29T04:23:16;9.85;;;1.95;;
14766;SDS011;7475;53.558;9.970;2023-12-29T04:25:41;5.32;;;0.90;;
14766;SDS011;7475;53.558;9.970;2023-12-29T04:28:07;6.30;;;0.88;;
14766;SDS011;7475;53.558;9.970;2023-12-29T04:30:32;3.75;;;0.63;;
14766;SDS011;7475;53.558;9.970;2023-12-29T04:32:58;4.82;;;1.02;;
14766;SDS011;7475;53.558;9.970;2023-12-29T04:35:23;5.20;;;0.90;;
14766;SDS011;7475;53.558;9.970;2023-12-29T04:37:48;4.50;;;0.93;;
14766;SDS011;7475;53.558;9.970;2023-12-29T04:40:14;4.00;;;0.80;;
14766;SDS011;7475;53.558;9.970;2023-12-29T04:42:39;2.13;;;0.50;;
14766;SDS011;7475;53.558;9.970;2023-12-29T04:45:05;2.42;;;0.52;;
14766;SDS011;7475;53.558;9.970;2023-12-29T04:47:30;2.42;;;0.65;;
14766;SDS011;7475;53.558;9.970;2023-12-29T04:49:55;3.65;;;0.75;;
14766;SDS011;7475;53.558;9.970;2023-12-29T04:52:20;4.25;;;0.85;;
14766;SDS011;7475;53.558;9.970;2023-12-29T04:54:46;8.77;;;1.48;;
14766;SDS011;7475;53.558;9.970;2023-12-29T04:57:11;3.95;;;0.85;;
14766;SDS011;7475;53.558;9.970;2023-12-29T04:59:36;3.47;;;1.23;;
14766;SDS011;7475;53.558;9.970;2023-12-29T05:02:01;2.55;;;0.70;;
14766;SDS011;7475;53.558;9.970;2023-12-29T05:04:26;3.60;;;0.80;;
14766;SDS011;7475;53.558;9.970;2023-12-29T05:06:52;8.50;;;1.20;;
14766;SDS011;7475;53.558;9.970;2023-12-29T05:09:17;6.07;;;0.98;;
14766;SDS011;7475;53.558;9.970;2023-12-29T05:11:42;5.68;;;0.75;;
14766;SDS011;7475;53.558;9.970;2023-12-29T05:14:08;6.85;;;1.08;;
14766;SDS011;7475;53.558;9.970;2023-12-29T05:16:33;5.88;;;1.20;;
14766;SDS011;7475;53.558;9.970;2023-12-29T05:18:58;8.23;;;1.27;;
14766;SDS011;7475;53.558;9.970;2023-12-29T05:21:23;8.07;;;1.02;;
14766;SDS011;7475;53.558;9.970;2023-12-29T05:23:49;9.02;;;1.30;;
14766;SDS011;7475;53.558;9.970;2023-12-29T05:26:14;5.40;;;0.82;;
14766;SDS011;7475;53.558;9.970;2023-12-29T05:28:40;8.18;;;1.13;;
14766;SDS011;7475;53.558;9.970;2023-12-29T05:31:05;4.55;;;0.80;;
14766;SDS011;7475;53.558;9.970;2023-12-29T05:33:31;3.78;;;0.88;;
14766;SDS011;7475;53.558;9.970;2023-12-29T05:35:56;6.35;;;1.15;;
14766;SDS011;7475;53.558;9.970;2023-12-29T05:38:21;4.78;;;1.08;;
14766;SDS011;7475;53.558;9.970;2023-12-29T05:40:46;5.70;;;1.35;;
14766;SDS011;7475;53.558;9.970;2023-12-29T05:43:12;4.18;;;1.08;;
14766;SDS011;7475;53.558;9.970;2023-12-29T05:45:37;5.25;;;0.93;;
14766;SDS011;7475;53.558;9.970;2023-12-29T05:48:02;5.00;;;1.15;;
14766;SDS011;7475;53.558;9.970;2023-12-29T05:50:27;7.57;;;1.50;;
14766;SDS011;7475;53.558;9.970;2023-12-29T05:52:53;4.70;;;1.38;;
14766;SDS011;7475;53.558;9.970;2023-12-29T05:55:18;5.80;;;1.42;;
14766;SDS011;7475;53.558;9.970;2023-12-29T05:57:44;6.70;;;1.38;;
14766;SDS011;7475;53.558;9.970;2023-12-29T06:00:09;7.00;;;1.10;;
14766;SDS011;7475;53.558;9.970;2023-12-29T06:02:39;5.15;;;1.48;;
14766;SDS011;7475;53.558;9.970;2023-12-29T06:05:04;5.50;;;1.00;;
14766;SDS011;7475;53.558;9.970;2023-12-29T06:07:29;5.53;;;1.30;;
14766;SDS011;7475;53.558;9.970;2023-12-29T06:09:55;5.15;;;1.23;;
14766;SDS011;7475;53.558;9.970;2023-12-29T06:12:20;8.13;;;1.52;;
14766;SDS011;7475;53.558;9.970;2023-12-29T06:14:45;9.43;;;1.63;;
14766;SDS011;7475;53.558;9.970;2023-12-29T06:17:10;10.07;;;2.25;;
14766;SDS011;7475;53.558;9.970;2023-12-29T06:19:35;7.22;;;1.60;;
14766;SDS011;7475;53.558;9.970;2023-12-29T06:22:01;12.10;;;2.00;;
14766;SDS011;7475;53.558;9.970;2023-12-29T06:24:26;9.55;;;1.80;;
14766;SDS011;7475;53.558;9.970;2023-12-29T06:26:51;8.45;;;2.08;;
14766;SDS011;7475;53.558;9.970;2023-12-29T06:29:16;14.15;;;2.50;;
14766;SDS011;7475;53.558;9.970;2023-12-29T06:31:42;7.10;;;1.77;;
14766;SDS011;7475;53.558;9.970;2023-12-29T06:34:07;8.20;;;1.90;;
14766;SDS011;7475;53.558;9.970;2023-12-29T06:36:32;7.70;;;2.08;;
14766;SDS011;7475;53.558;9.970;2023-12-29T06:38:57;7.95;;;2.40;;
14766;SDS011;7475;53.558;9.970;2023-12-29T06:41:23;4.65;;;2.05;;
14766;SDS011;7475;53.558;9.970;2023-12-29T06:43:48;10.48;;;3.03;;
14766;SDS011;7475;53.558;9.970;2023-12-29T06:46:13;13.07;;;3.05;;
14766;SDS011;7475;53.558;9.970;2023-12-29T06:48:39;12.98;;;3.63;;
14766;SDS011;7475;53.558;9.970;2023-12-29T06:51:04;11.50;;;3.60;;
14766;SDS011;7475;53.558;9.970;2023-12-29T06:53:29;12.55;;;3.78;;
14766;SDS011;7475;53.558;9.970;2023-12-29T06:55:54;10.20;;;3.60;;
14766;SDS011;7475;53.558;9.970;2023-12-29T06:58:20;11.18;;;3.70;;
14766;SDS011;7475;53.558;9.970;2023-12-29T07:00:45;11.50;;;3.00;;
14766;SDS011;7475;53.558;9.970;2023-12-29T07:03:12;15.05;;;3.55;;
14766;SDS011;7475;53.558;9.970;2023-12-29T07:05:38;16.35;;;3.35;;
14766;SDS011;7475;53.558;9.970;2023-12-29T07:08:03;11.90;;;3.75;;
14766;SDS011;7475;53.558;9.970;2023-12-29T07:10:28;20.05;;;3.30;;
14766;SDS011;7475;53.558;9.970;2023-12-29T07:12:53;12.90;;;3.15;;
14766;SDS011;7475;53.558;9.970;2023-12-29T07:15:19;11.98;;;2.88;;
14766;SDS011;7475;53.558;9.970;2023-12-29T07:17:44;20.25;;;3.50;;
14766;SDS011;7475;53.558;9.970;2023-12-29T07:20:09;12.45;;;2.85;;
14766;SDS011;7475;53.558;9.970;2023-12-29T07:22:34;15.23;;;3.13;;
14766;SDS011;7475;53.558;9.970;2023-12-29T07:25:00;11.77;;;2.67;;
14766;SDS011;7475;53.558;9.970;2023-12-29T07:27:25;17.17;;;2.80;;
14766;SDS011;7475;53.558;9.970;2023-12-29T07:29:51;17.45;;;3.17;;
14766;SDS011;7475;53.558;9.970;2023-12-29T07:32:16;11.40;;;2.50;;
14766;SDS011;7475;53.558;9.970;2023-12-29T07:34:41;14.65;;;2.88;;
14766;SDS011;7475;53.558;9.970;2023-12-29T07:37:06;18.77;;;2.90;;
14766;SDS011;7475;53.558;9.970;2023-12-29T07:39:31;16.67;;;2.83;;
14766;SDS011;7475;53.558;9.970;2023-12-29T07:41:57;15.98;;;3.13;;
14766;SDS011;7475;53.558;9.970;2023-12-29T07:44:22;13.68;;;3.13;;
14766;SDS011;7475;53.558;9.970;2023-12-29T07:46:47;15.40;;;2.90;;
14766;SDS011;7475;53.558;9.970;2023-12-29T07:49:12;13.90;;;2.78;;
14766;SDS011;7475;53.558;9.970;2023-12-29T07:51:41;16.08;;;2.83;;
14766;SDS011;7475;53.558;9.970;2023-12-29T07:54:07;13.80;;;2.90;;
14766;SDS011;7475;53.558;9.970;2023-12-29T07:56:32;11.82;;;2.85;;
14766;SDS011;7475;53.558;9.970;2023-12-29T07:58:57;16.65;;;2.75;;
14766;SDS011;7475;53.558;9.970;2023-12-29T08:01:23;17.67;;;3.17;;
14766;SDS011;7475;53.558;9.970;2023-12-29T08:03:48;14.18;;;2.65;;
14766;SDS011;7475;53.558;9.970;2023-12-29T08:06:13;16.75;;;2.47;;
14766;SDS011;7475;53.558;9.970;2023-12-29T08:08:38;12.20;;;2.33;;
14766;SDS011;7475;53.558;9.970;2023-12-29T08:11:03;15.50;;;2.50;;
14766;SDS011;7475;53.558;9.970;2023-12-29T08:13:29;19.15;;;3.70;;
14766;SDS011;7475;53.558;9.970;2023-12-29T08:15:54;13.20;;;2.30;;
14766;SDS011;7475;53.558;9.970;2023-12-29T08:18:19;15.20;;;2.45;;
14766;SDS011;7475;53.558;9.970;2023-12-29T08:20:44;16.77;;;3.00;;
14766;SDS011;7475;53.558;9.970;2023-12-29T08:23:09;16.35;;;2.97;;
14766;SDS011;7475;53.558;9.970;2023-12-29T08:25:35;15.57;;;2.72;;
14766;SDS011;7475;53.558;9.970;2023-12-29T08:28:02;11.27;;;2.72;;
14766;SDS011;7475;53.558;9.970;2023-12-29T08:30:27;12.35;;;2.90;;
14766;SDS011;7475;53.558;9.970;2023-12-29T08:32:52;16.70;;;2.75;;
14766;SDS011;7475;53.558;9.970;2023-12-29T08:35:17;18.65;;;3.20;;
14766;SDS011;7475;53.558;9.970;2023-12-29T08:37:42;17.05;;;2.83;;
14766;SDS011;7475;53.558;9.970;2023-12-29T08:40:08;11.80;;;2.00;;
14766;SDS011;7475;53.558;9.970;2023-12-29T08:42:33;9.70;;;2.20;;
14766;SDS011;7475;53.558;9.970;2023-12-29T08:44:59;8.13;;;2.28;;
14766;SDS011;7475;53.558;9.970;2023-12-29T08:47:24;15.63;;;2.75;;
14766;SDS011;7475;53.558;9.970;2023-12-29T08:49:49;11.73;;;1.95;;
14766;SDS011;7475;53.558;9.970;2023-12-29T08:52:14;12.02;;;2.42;;
14766;SDS011;7475;53.558;9.970;2023-12-29T08:54:40;13.68;;;2.28;;
14766;SDS011;7475;53.558;9.970;2023-12-29T08:57:05;15.27;;;2.85;;
14766;SDS011;7475;53.558;9.970;2023-12-29T08:59:31;14.77;;;2.65;;
14766;SDS011;7475;53.558;9.970;2023-12-29T09:01:57;7.13;;;1.60;;
14766;SDS011;7475;53.558;9.970;2023-12-29T09:04:22;9.85;;;2.50;;
14766;SDS011;7475;53.558;9.970;2023-12-29T09:06:47;11.32;;;2.47;;
14766;SDS011;7475;53.558;9.970;2023-12-29T09:09:12;14.43;;;2.70;;
14766;SDS011;7475;53.558;9.970;2023-12-29T09:11:47;21.40;;;2.75;;
14766;SDS011;7475;53.558;9.970;2023-12-29T09:14:12;11.63;;;2.30;;
14766;SDS011;7475;53.558;9.970;2023-12-29T09:16:38;10.82;;;1.95;;
14766;SDS011;7475;53.558;9.970;2023-12-29T09:19:03;12.63;;;1.95;;
14766;SDS011;7475;53.558;9.970;2023-12-29T09:21:28;9.75;;;1.27;;
14766;SDS011;7475;53.558;9.970;2023-12-29T09:23:53;16.38;;;1.42;;
14766;SDS011;7475;53.558;9.970;2023-12-29T09:26:18;5.38;;;1.02;;
14766;SDS011;7475;53.558;9.970;2023-12-29T09:28:44;7.50;;;1.38;;
14766;SDS011;7475;53.558;9.970;2023-12-29T09:31:09;3.85;;;1.10;;
14766;SDS011;7475;53.558;9.970;2023-12-29T09:33:34;3.95;;;1.42;;
14766;SDS011;7475;53.558;9.970;2023-12-29T09:36:00;9.50;;;2.08;;
14766;SDS011;7475;53.558;9.970;2023-12-29T09:38:25;7.93;;;2.10;;
14766;SDS011;7475;53.558;9.970;2023-12-29T09:40:50;10.02;;;2.05;;
14766;SDS011;7475;53.558;9.970;2023-12-29T09:43:17;14.27;;;2.58;;
14766;SDS011;7475;53.558;9.970;2023-12-29T09:45:42;9.82;;;2.33;;
14766;SDS011;7475;53.558;9.970;2023-12-29T09:48:09;10.98;;;2.28;;
14766;SDS011;7475;53.558;9.970;2023-12-29T09:50:37;11.75;;;2.60;;
14766;SDS011;7475;53.558;9.970;2023-12-29T09:53:02;12.60;;;2.40;;
14766;SDS011;7475;53.558;9.970;2023-12-29T09:55:28;10.68;;;2.75;;
14766;SDS011;7475;53.558;9.970;2023-12-29T09:57:54;12.38;;;2.83;;
14766;SDS011;7475;53.558;9.970;2023-12-29T10:00:19;14.52;;;2.45;;
14766;SDS011;7475;53.558;9.970;2023-12-29T10:02:50;16.67;;;2.92;;
14766;SDS011;7475;53.558;9.970;2023-12-29T10:05:16;15.23;;;2.88;;
14766;SDS011;7475;53.558;9.970;2023-12-29T10:07:41;18.35;;;3.03;;
14766;SDS011;7475;53.558;9.970;2023-12-29T10:10:08;19.13;;;3.10;;
14766;SDS011;7475;53.558;9.970;2023-12-29T10:12:37;14.80;;;2.85;;
14766;SDS011;7475;53.558;9.970;2023-12-29T10:15:10;15.07;;;2.92;;
14766;SDS011;7475;53.558;9.970;2023-12-29T10:17:47;16.77;;;2.30;;
14766;SDS011;7475;53.558;9.970;2023-12-29T10:23:02;22.38;;;2.80;;
14766;SDS011;7475;53.558;9.970;2023-12-29T10:25:29;15.07;;;2.67;;
14766;SDS011;7475;53.558;9.970;2023-12-29T10:27:55;13.30;;;2.53;;
14766;SDS011;7475;53.558;9.970;2023-12-29T10:30:21;11.98;;;2.08;;
14766;SDS011;7475;53.558;9.970;2023-12-29T10:32:49;19.73;;;3.05;;
14766;SDS011;7475;53.558;9.970;2023-12-29T10:35:15;13.98;;;2.78;;
14766;SDS011;7475;53.558;9.970;2023-12-29T10:37:41;11.32;;;2.63;;
14766;SDS011;7475;53.558;9.970;2023-12-29T10:40:07;12.23;;;2.70;;
14766;SDS011;7475;53.558;9.970;2023-12-29T10:42:32;14.77;;;2.50;;
14766;SDS011;7475;53.558;9.970;2023-12-29T10:45:05;15.13;;;2.33;;
14766;SDS011;7475;53.558;9.970;2023-12-29T10:47:31;16.45;;;2.38;;
14766;SDS011;7475;53.558;9.970;2023-12-29T10:49:58;12.07;;;2.30;;
14766;SDS011;7475;53.558;9.970;2023-12-29T10:52:23;16.02;;;2.92;;
14766;SDS011;7475;53.558;9.970;2023-12-29T10:54:49;12.52;;;4.93;;
14766;SDS011;7475;53.558;9.970;2023-12-29T10:57:14;12.63;;;2.75;;
14766;SDS011;7475;53.558;9.970;2023-12-29T10:59:39;12.20;;;2.55;;
14766;SDS011;7475;53.558;9.970;2023-12-29T11:02:04;13.80;;;2.78;;
14766;SDS011;7475;53.558;9.970;2023-12-29T11:04:30;11.32;;;2.80;;
14766;SDS011;7475;53.558;9.970;2023-12-29T11:06:55;14.75;;;2.95;;
14766;SDS011;7475;53.558;9.970;2023-12-29T11:09:26;14.00;;;2.60;;
14766;SDS011;7475;53.558;9.970;2023-12-29T11:11:57;14.43;;;3.28;;
14766;SDS011;7475;53.558;9.970;2023-12-29T11:14:24;18.08;;;4.38;;
14766;SDS011;7475;53.558;9.970;2023-12-29T11:16:50;17.63;;;3.45;;
14766;SDS011;7475;53.558;9.970;2023-12-29T11:19:16;10.15;;;2.75;;
14766;SDS011;7475;53.558;9.970;2023-12-29T11:21:42;12.93;;;2.45;;
14766;SDS011;7475;53.558;9.970;2023-12-29T11:24:08;8.75;;;2.28;;
14766;SDS011;7475;53.558;9.970;2023-12-29T11:26:33;12.73;;;2.72;;
14766;SDS011;7475;53.558;9.970;2023-12-29T11:28:59;11.77;;;2.50;;
14766;SDS011;7475;53.558;9.970;2023-12-29T11:31:25;12.93;;;2.80;;
14766;SDS011;7475;53.558;9.970;2023-12-29T11:33:52;10.90;;;2.42;;
14766;SDS011;7475;53.558;9.970;2023-12-29T11:36:26;7.65;;;2.13;;
14766;SDS011;7475;53.558;9.970;2023-12-29T11:38:54;8.88;;;2.60;;
14766;SDS011;7475;53.558;9.970;2023-12-29T11:44:03;8.00;;;1.98;;
14766;SDS011;7475;53.558;9.970;2023-12-29T11:46:38;5.38;;;1.52;;
14766;SDS011;7475;53.558;9.970;2023-12-29T11:49:03;7.32;;;1.55;;
14766;SDS011;7475;53.558;9.970;2023-12-29T11:51:30;9.00;;;2.28;;
14766;SDS011;7475;53.558;9.970;2023-12-29T11:53:55;9.40;;;2.00;;
14766;SDS011;7475;53.558;9.970;2023-12-29T11:56:21;7.05;;;1.80;;
14766;SDS011;7475;53.558;9.970;2023-12-29T11:58:46;6.20;;;1.70;;
14766;SDS011;7475;53.558;9.970;2023-12-29T12:01:11;5.03;;;1.48;;
14766;SDS011;7475;53.558;9.970;2023-12-29T12:03:36;6.97;;;1.98;;
14766;SDS011;7475;53.558;9.970;2023-12-29T12:06:02;9.25;;;2.55;;
14766;SDS011;7475;53.558;9.970;2023-12-29T12:08:32;10.25;;;2.15;;
14766;SDS011;7475;53.558;9.970;2023-12-29T12:11:41;7.65;;;2.70;;
14766;SDS011;7475;53.558;9.970;2023-12-29T12:13:44;9.98;;;2.35;;
14766;SDS011;7475;53.558;9.970;2023-12-29T12:16:46;2.63;;;0.82;;
14766;SDS011;7475;53.558;9.970;2023-12-29T12:18:55;12.77;;;2.25;;
14766;SDS011;7475;53.558;9.970;2023-12-29T12:21:21;11.20;;;2.50;;
14766;SDS011;7475;53.558;9.970;2023-12-29T12:23:47;7.28;;;2.03;;
14766;SDS011;7475;53.558;9.970;2023-12-29T12:26:13;5.30;;;1.52;;
14766;SDS011;7475;53.558;9.970;2023-12-29T12:28:38;9.80;;;2.03;;
14766;SDS011;7475;53.558;9.970;2023-12-29T12:31:08;9.15;;;1.92;;
14766;SDS011;7475;53.558;9.970;2023-12-29T12:33:34;8.45;;;1.63;;
14766;SDS011;7475;53.558;9.970;2023-12-29T12:35:59;5.65;;;1.40;;
14766;SDS011;7475;53.558;9.970;2023-12-29T12:38:25;7.32;;;2.22;;
14766;SDS011;7475;53.558;9.970;2023-12-29T12:40:51;7.07;;;1.70;;
14766;SDS011;7475;53.558;9.970;2023-12-29T12:43:17;4.40;;;1.35;;
14766;SDS011;7475;53.558;9.970;2023-12-29T12:45:43;5.28;;;1.65;;
14766;SDS011;7475;53.558;9.970;2023-12-29T12:50:45;7.68;;;1.55;;
14766;SDS011;7475;53.558;9.970;2023-12-29T12:53:12;6.22;;;1.60;;
14766;SDS011;7475;53.558;9.970;2023-12-29T12:55:39;7.18;;;1.80;;
14766;SDS011;7475;53.558;9.970;2023-12-29T12:58:08;8.63;;;1.85;;
14766;SDS011;7475;53.558;9.970;2023-12-29T13:00:33;5.75;;;1.60;;
14766;SDS011;7475;53.558;9.970;2023-12-29T13:02:59;6.25;;;1.90;;
14766;SDS011;7475;53.558;9.970;2023-12-29T13:05:25;5.75;;;1.83;;
14766;SDS011;7475;53.558;9.970;2023-12-29T13:07:53;6.00;;;1.63;;
14766;SDS011;7475;53.558;9.970;2023-12-29T13:10:20;7.47;;;1.80;;
14766;SDS011;7475;53.558;9.970;2023-12-29T13:12:52;5.00;;;1.60;;
14766;SDS011;7475;53.558;9.970;2023-12-29T13:15:17;6.03;;;1.70;;
14766;SDS011;7475;53.558;9.970;2023-12-29T13:17:49;4.43;;;1.20;;
14766;SDS011;7475;53.558;9.970;2023-12-29T13:20:14;6.78;;;1.85;;
14766;SDS011;7475;53.558;9.970;2023-12-29T13:22:39;4.97;;;1.30;;
14766;SDS011;7475;53.558;9.970;2023-12-29T13:25:05;7.03;;;1.80;;
14766;SDS011;7475;53.558;9.970;2023-12-29T13:27:30;7.78;;;1.60;;
14766;SDS011;7475;53.558;9.970;2023-12-29T13:29:56;4.65;;;1.75;;
14766;SDS011;7475;53.558;9.970;2023-12-29T13:32:22;13.98;;;3.55;;
14766;SDS011;7475;53.558;9.970;2023-12-29T13:37:20;5.35;;;2.10;;
14766;SDS011;7475;53.558;9.970;2023-12-29T13:40:22;12.45;;;2.10;;
14766;SDS011;7475;53.558;9.970;2023-12-29T13:42:37;10.68;;;2.42;;
14766;SDS011;7475;53.558;9.970;2023-12-29T13:45:04;6.55;;;2.50;;
14766;SDS011;7475;53.558;9.970;2023-12-29T13:47:30;8.48;;;2.08;;
14766;SDS011;7475;53.558;9.970;2023-12-29T13:49:55;7.00;;;2.00;;
14766;SDS011;7475;53.558;9.970;2023-12-29T13:52:21;12.60;;;2.33;;
14766;SDS011;7475;53.558;9.970;2023-12-29T13:54:46;7.93;;;2.40;;
14766;SDS011;7475;53.558;9.970;2023-12-29T13:57:12;7.85;;;2.60;;
14766;SDS011;7475;53.558;9.970;2023-12-29T13:59:37;11.45;;;2.30;;
14766;SDS011;7475;53.558;9.970;2023-12-29T14:02:04;10.50;;;1.92;;
14766;SDS011;7475;53.558;9.970;2023-12-29T14:04:43;9.13;;;2.20;;
14766;SDS011;7475;53.558;9.970;2023-12-29T14:07:10;9.75;;;1.92;;
14766;SDS011;7475;53.558;9.970;2023-12-29T14:09:35;6.28;;;2.30;;
14766;SDS011;7475;53.558;9.970;2023-12-29T14:12:00;13.80;;;2.67;;
14766;SDS011;7475;53.558;9.970;2023-12-29T14:14:25;11.90;;;2.40;;
14766;SDS011;7475;53.558;9.970;2023-12-29T14:16:54;9.45;;;1.98;;
14766;SDS011;7475;53.558;9.970;2023-12-29T14:19:19;24.38;;;14.25;;
14766;SDS011;7475;53.558;9.970;2023-12-29T14:21:45;10.43;;;3.05;;
14766;SDS011;7475;53.558;9.970;2023-12-29T14:24:12;14.27;;;2.08;;
14766;SDS011;7475;53.558;9.970;2023-12-29T14:26:39;12.63;;;2.17;;
14766;SDS011;7475;53.558;9.970;2023-12-29T14:29:10;16.10;;;2.17;;
14766;SDS011;7475;53.558;9.970;2023-12-29T14:31:36;9.98;;;3.15;;
14766;SDS011;7475;53.558;9.970;2023-12-29T14:34:02;16.42;;;3.20;;
14766;SDS011;7475;53.558;9.970;2023-12-29T14:36:28;13.45;;;2.45;;
14766;SDS011;7475;53.558;9.970;2023-12-29T14:38:53;12.32;;;2.78;;
14766;SDS011;7475;53.558;9.970;2023-12-29T14:41:18;7.05;;;1.85;;
14766;SDS011;7475;53.558;9.970;2023-12-29T14:43:43;8.45;;;2.20;;
14766;SDS011;7475;53.558;9.970;2023-12-29T14:46:08;17.38;;;4.45;;
14766;SDS011;7475;53.558;9.970;2023-12-29T14:48:34;11.35;;;2.83;;
14766;SDS011;7475;53.558;9.970;2023-12-29T14:50:59;14.13;;;2.50;;
14766;SDS011;7475;53.558;9.970;2023-12-29T14:53:24;16.83;;;2.85;;
14766;SDS011;7475;53.558;9.970;2023-12-29T14:55:50;12.80;;;2.67;;
14766;SDS011;7475;53.558;9.970;2023-12-29T14:58:15;11.13;;;2.13;;
14766;SDS011;7475;53.558;9.970;2023-12-29T15:00:43;13.55;;;2.58;;